createdAt,value
2022-12-14T00:00:07.482Z,24.80
2022-12-14T00:10:37.537Z,24.30
2022-12-14T00:20:40.795Z,23.70
2022-12-14T00:30:43.975Z,24.20
2022-12-14T00:40:47.174Z,23.20
2022-12-14T00:50:52.173Z,23.20
2022-12-14T01:01:06.014Z,22.20
2022-12-14T01:11:10.339Z,23.50
2022-12-14T01:21:19.698Z,22.90
2022-12-14T01:31:30.164Z,24.00
2022-12-14T01:41:37.136Z,22.70
2022-12-14T01:51:46.899Z,22.50
2022-12-14T02:01:51.440Z,23.80
2022-12-14T02:12:06.636Z,23.20
2022-12-14T02:22:22.071Z,22.70
2022-12-14T02:33:10.062Z,23.20
2022-12-14T02:43:24.775Z,21.90
2022-12-14T02:54:07.392Z,22.80
2022-12-14T03:04:11.325Z,22.10
2022-12-14T03:14:23.324Z,25.50
2022-12-14T03:24:37.514Z,24.60
2022-12-14T03:34:47.131Z,27.50
2022-12-14T03:45:07.260Z,30.20
2022-12-14T03:55:35.017Z,28.50
2022-12-14T04:05:49.795Z,31.20
2022-12-14T04:16:14.750Z,31.00
2022-12-14T04:26:23.086Z,30.30
2022-12-14T04:36:32.608Z,29.70
2022-12-14T04:46:40.873Z,34.10
2022-12-14T04:56:51.309Z,32.80
2022-12-14T05:07:10.055Z,30.60
2022-12-14T05:17:14.995Z,33.10
2022-12-14T05:27:18.277Z,31.40
2022-12-14T05:37:21.571Z,30.30
2022-12-14T05:47:25.198Z,31.90
2022-12-14T05:57:28.322Z,29.90
2022-12-14T06:07:31.458Z,27.10
2022-12-14T06:17:35.178Z,30.60
2022-12-14T06:27:38.319Z,31.00
2022-12-14T06:37:41.542Z,29.70
2022-12-14T06:47:44.718Z,28.60
2022-12-14T06:57:51.643Z,28.00
2022-12-14T07:07:54.729Z,31.80
2022-12-14T07:17:57.930Z,30.80
2022-12-14T07:28:01.042Z,34.80
2022-12-14T07:38:04.191Z,33.10
2022-12-14T07:48:07.475Z,38.80
2022-12-14T07:58:10.562Z,35.30
2022-12-14T08:08:13.695Z,35.60
2022-12-14T08:18:16.872Z,32.50
2022-12-14T08:28:19.971Z,31.40
2022-12-14T08:38:23.127Z,31.90
2022-12-14T08:48:26.483Z,34.70
2022-12-14T08:58:29.673Z,31.40
2022-12-14T09:08:34.226Z,29.40
2022-12-14T09:18:37.385Z,30.50
2022-12-14T09:28:42.529Z,28.80
2022-12-14T09:38:51.141Z,26.70
2022-12-14T09:48:57.474Z,29.80
2022-12-14T09:59:02.866Z,32.60
2022-12-14T10:09:20.126Z,30.50
2022-12-14T10:19:32.196Z,30.90
2022-12-14T10:29:46.872Z,32.50
2022-12-14T10:39:56.242Z,32.80
2022-12-14T10:50:23.169Z,33.10
2022-12-14T11:00:26.409Z,31.70
2022-12-14T11:10:39.726Z,27.70
2022-12-14T11:31:29.065Z,28.30
2022-12-14T11:41:38.555Z,25.80
2022-12-14T11:51:55.457Z,29.40
2022-12-14T12:02:28.686Z,24.80
2022-12-14T12:12:32.963Z,26.30
2022-12-14T12:22:38.069Z,24.80
2022-12-14T12:32:50.449Z,23.70
2022-12-14T12:43:28.043Z,23.70
2022-12-14T12:53:44.187Z,27.80
2022-12-14T13:03:51.675Z,25.10
2022-12-14T13:14:26.329Z,26.20
2022-12-14T13:34:38.410Z,24.60
2022-12-14T13:45:06.169Z,31.70
2022-12-14T13:55:35.431Z,28.80
2022-12-14T14:05:44.931Z,28.00
2022-12-14T14:16:27.279Z,24.40
2022-12-14T14:26:44.111Z,24.80
2022-12-14T14:36:47.762Z,31.30
2022-12-14T14:46:52.058Z,28.80
2022-12-14T14:56:55.595Z,26.40
2022-12-14T15:07:04.542Z,27.70
2022-12-14T15:17:25.230Z,27.00
2022-12-14T15:27:37.434Z,28.30
2022-12-14T15:37:46.916Z,30.90
2022-12-14T15:47:50.838Z,30.30
2022-12-14T15:57:54.583Z,34.60
2022-12-14T16:07:58.509Z,29.50
2022-12-14T16:18:03.391Z,34.90
2022-12-14T16:28:39.558Z,34.20
2022-12-14T16:38:56.797Z,31.10
2022-12-14T16:49:22.032Z,34.10
2022-12-14T16:59:35.852Z,32.80
2022-12-14T17:09:40.253Z,35.00
2022-12-14T17:19:43.983Z,31.50
2022-12-14T17:29:47.123Z,28.70
2022-12-14T17:39:50.689Z,31.80
2022-12-14T17:49:53.931Z,31.90
2022-12-14T18:00:16.136Z,26.30
2022-12-14T18:10:19.771Z,29.10
2022-12-14T18:20:24.489Z,27.80
2022-12-14T18:30:33.272Z,30.00
2022-12-14T18:40:42.601Z,22.80
2022-12-14T18:50:46.319Z,27.10
2022-12-14T19:00:56.565Z,29.60
2022-12-14T19:11:00.578Z,29.30
2022-12-14T19:21:05.033Z,27.10
2022-12-14T19:31:10.950Z,31.90
2022-12-14T19:41:15.200Z,30.70
2022-12-14T19:51:19.538Z,30.40
2022-12-14T20:01:22.782Z,31.30
2022-12-14T20:21:29.813Z,32.20
2022-12-14T20:31:34.550Z,32.60
2022-12-14T20:41:38.174Z,30.50
2022-12-14T20:51:42.768Z,28.60
2022-12-14T21:01:50.220Z,30.60
2022-12-14T21:12:15.531Z,27.10
2022-12-14T21:22:22.078Z,27.20
2022-12-14T21:32:25.297Z,28.40
2022-12-14T21:42:28.391Z,23.00
2022-12-14T22:02:35.371Z,27.10
2022-12-14T22:12:38.965Z,27.50
2022-12-14T22:22:42.074Z,27.70
2022-12-14T22:32:45.367Z,32.80
2022-12-14T22:42:48.494Z,30.50
2022-12-14T22:52:51.597Z,28.00
2022-12-14T23:02:55.223Z,26.60
2022-12-14T23:13:17.250Z,26.40
2022-12-14T23:23:39.200Z,32.50
2022-12-14T23:34:01.773Z,27.40
2022-12-14T23:44:23.705Z,23.50
2022-12-14T23:54:45.472Z,23.50
